createdAt,value
2022-10-06T00:01:09.060Z,102309.05
2022-10-06T00:03:41.831Z,102307.98
2022-10-06T00:06:13.182Z,102310.75
2022-10-06T00:08:42.178Z,102308.18
2022-10-06T00:11:12.214Z,102309.39
2022-10-06T00:13:40.273Z,102304.85
2022-10-06T00:16:14.033Z,102306.58
2022-10-06T00:18:41.447Z,102303.98
2022-10-06T00:21:08.892Z,102299.49
2022-10-06T00:23:36.640Z,102297.88
2022-10-06T00:26:04.205Z,102294.95
2022-10-06T00:28:32.265Z,102294.92
2022-10-06T00:31:02.613Z,102295.46
2022-10-06T00:33:30.373Z,102306.46
2022-10-06T00:35:58.528Z,102305.08
2022-10-06T00:38:27.655Z,102292.89
2022-10-06T00:40:55.727Z,102290.98
2022-10-06T00:44:10.789Z,102285.58
2022-10-06T00:46:53.053Z,102278.96
2022-10-06T00:49:31.587Z,102278.39
2022-10-06T00:52:07.124Z,102283.69
2022-10-06T00:54:35.916Z,102284.30
2022-10-06T00:57:04.924Z,102274.69
2022-10-06T00:59:34.700Z,102263.02
2022-10-06T01:02:08.571Z,102260.69
2022-10-06T01:04:40.251Z,102259.02
2022-10-06T01:07:08.087Z,102246.79
2022-10-06T01:09:37.509Z,102241.52
2022-10-06T01:12:07.463Z,102244.27
2022-10-06T01:14:37.608Z,102245.65
2022-10-06T01:17:21.330Z,102236.05
2022-10-06T01:20:11.024Z,102232.58
2022-10-06T01:22:48.217Z,102234.85
2022-10-06T01:25:17.955Z,102232.48
2022-10-06T01:27:53.214Z,102230.97
2022-10-06T01:30:32.299Z,102233.48
2022-10-06T01:32:59.761Z,102235.47
2022-10-06T01:35:27.621Z,102234.99
2022-10-06T01:37:58.302Z,102232.48
2022-10-06T01:40:28.800Z,102233.90
2022-10-06T01:42:57.448Z,102234.25
2022-10-06T01:45:26.804Z,102236.85
2022-10-06T01:47:54.195Z,102236.07
2022-10-06T01:50:22.324Z,102240.36
2022-10-06T01:52:49.740Z,102238.70
2022-10-06T01:55:17.228Z,102239.77
2022-10-06T01:57:45.307Z,102237.28
2022-10-06T02:00:14.972Z,102232.94
2022-10-06T02:02:43.076Z,102230.58
2022-10-06T02:05:10.988Z,102226.58
2022-10-06T02:07:41.445Z,102226.73
2022-10-06T02:10:09.424Z,102226.34
2022-10-06T02:12:37.531Z,102227.43
2022-10-06T02:15:07.712Z,102229.45
2022-10-06T02:17:35.052Z,102231.91
2022-10-06T02:20:02.444Z,102229.02
2022-10-06T02:22:30.520Z,102229.20
2022-10-06T02:24:57.956Z,102226.94
2022-10-06T02:27:25.416Z,102218.39
2022-10-06T02:29:53.297Z,102226.39
2022-10-06T02:32:20.718Z,102223.20
2022-10-06T02:34:49.699Z,102221.99
2022-10-06T02:37:17.538Z,102228.50
2022-10-06T02:39:45.106Z,102230.42
2022-10-06T02:42:12.563Z,102227.59
2022-10-06T02:44:40.197Z,102231.09
2022-10-06T02:47:14.200Z,102229.08
2022-10-06T02:49:41.944Z,102233.34
2022-10-06T02:52:10.709Z,102236.60
2022-10-06T02:54:38.144Z,102243.15
2022-10-06T02:57:05.364Z,102239.30
2022-10-06T02:59:33.775Z,102237.27
2022-10-06T03:02:01.451Z,102229.94
2022-10-06T03:04:29.326Z,102225.05
2022-10-06T03:06:57.318Z,102220.45
2022-10-06T03:09:27.686Z,102219.41
2022-10-06T03:11:55.260Z,102219.20
2022-10-06T03:14:35.644Z,102218.32
2022-10-06T03:17:03.551Z,102219.00
2022-10-06T03:19:31.596Z,102219.66
2022-10-06T03:21:59.224Z,102222.48
2022-10-06T03:24:34.696Z,102226.19
2022-10-06T03:27:02.944Z,102228.13
2022-10-06T03:29:30.650Z,102231.13
2022-10-06T03:31:58.545Z,102233.02
2022-10-06T03:34:25.981Z,102235.86
2022-10-06T03:36:54.986Z,102232.23
2022-10-06T03:39:22.940Z,102229.20
2022-10-06T03:41:50.737Z,102227.70
2022-10-06T03:44:18.207Z,102233.43
2022-10-06T03:46:46.072Z,102230.84
2022-10-06T03:49:13.448Z,102231.71
2022-10-06T03:51:41.695Z,102236.54
2022-10-06T03:54:16.047Z,102236.12
2022-10-06T03:56:45.129Z,102235.86
2022-10-06T03:59:19.041Z,102233.46
2022-10-06T04:01:48.480Z,102243.41
2022-10-06T04:04:20.074Z,102242.79
2022-10-06T04:06:50.856Z,102246.89
2022-10-06T04:09:20.056Z,102249.19
2022-10-06T04:11:48.300Z,102253.81
2022-10-06T04:14:16.415Z,102251.88
2022-10-06T04:16:50.664Z,102250.77
2022-10-06T04:19:25.054Z,102252.70
2022-10-06T04:21:55.679Z,102254.67
2022-10-06T04:24:24.797Z,102253.58
2022-10-06T04:26:52.815Z,102249.94
2022-10-06T04:29:21.324Z,102248.10
2022-10-06T04:31:53.514Z,102250.48
2022-10-06T04:34:25.854Z,102247.75
2022-10-06T04:36:54.139Z,102249.13
2022-10-06T04:39:22.147Z,102251.81
2022-10-06T04:41:49.441Z,102253.36
2022-10-06T04:44:21.819Z,102256.41
2022-10-06T04:46:49.631Z,102261.59
2022-10-06T04:49:20.235Z,102270.36
2022-10-06T04:51:49.902Z,102272.31
2022-10-06T04:54:18.672Z,102275.30
2022-10-06T04:56:46.720Z,102278.09
2022-10-06T04:59:15.034Z,102276.82
2022-10-06T05:01:44.288Z,102274.71
2022-10-06T05:04:13.533Z,102278.40
2022-10-06T05:06:44.152Z,102277.73
2022-10-06T05:09:14.351Z,102281.59
2022-10-06T05:11:47.755Z,102281.80
2022-10-06T05:14:17.745Z,102285.45
2022-10-06T05:16:47.973Z,102281.84
2022-10-06T05:19:16.126Z,102282.21
2022-10-06T05:21:44.182Z,102278.67
2022-10-06T05:24:15.912Z,102278.48
2022-10-06T05:26:43.616Z,102281.84
2022-10-06T05:29:13.533Z,102285.19
2022-10-06T05:31:42.921Z,102283.88
2022-10-06T05:34:10.875Z,102287.13
2022-10-06T05:36:38.583Z,102288.16
2022-10-06T05:39:07.153Z,102288.95
2022-10-06T05:41:45.348Z,102293.39
2022-10-06T05:44:14.183Z,102292.90
2022-10-06T05:46:43.063Z,102296.35
2022-10-06T05:49:12.446Z,102293.21
2022-10-06T05:51:43.796Z,102299.66
2022-10-06T05:54:31.986Z,102302.05
2022-10-06T05:56:59.227Z,102307.63
2022-10-06T05:59:26.905Z,102309.82
2022-10-06T06:01:55.913Z,102312.13
2022-10-06T06:04:42.498Z,102310.38
2022-10-06T06:07:10.288Z,102305.06
2022-10-06T06:09:38.811Z,102303.45
2022-10-06T06:12:06.298Z,102301.56
2022-10-06T06:15:07.796Z,102304.55
2022-10-06T06:17:49.437Z,102298.21
2022-10-06T06:20:16.846Z,102296.91
2022-10-06T06:22:44.378Z,102299.77
2022-10-06T06:25:12.603Z,102305.71
2022-10-06T06:27:41.599Z,102310.86
2022-10-06T06:30:10.131Z,102315.56
2022-10-06T06:32:39.178Z,102320.27
2022-10-06T06:35:07.298Z,102326.41
2022-10-06T06:37:34.710Z,102326.10
2022-10-06T06:40:02.687Z,102327.03
2022-10-06T06:42:32.247Z,102328.34
2022-10-06T06:45:18.471Z,102325.61
2022-10-06T06:48:06.388Z,102324.19
2022-10-06T06:50:34.279Z,102323.42
2022-10-06T06:53:02.353Z,102317.17
2022-10-06T06:55:30.247Z,102317.58
2022-10-06T06:57:57.716Z,102317.05
2022-10-06T07:00:25.147Z,102320.33
2022-10-06T07:02:55.643Z,102319.25
2022-10-06T07:05:22.994Z,102319.80
2022-10-06T07:07:50.901Z,102316.69
2022-10-06T07:10:18.290Z,102315.33
2022-10-06T07:12:46.075Z,102314.39
2022-10-06T07:15:32.126Z,102314.54
2022-10-06T07:18:21.743Z,102316.40
2022-10-06T07:21:07.898Z,102317.64
2022-10-06T07:23:54.083Z,102316.40
2022-10-06T07:26:21.481Z,102316.74
2022-10-06T07:28:51.283Z,102316.98
2022-10-06T07:31:19.225Z,102319.68
2022-10-06T07:33:47.921Z,102314.17
2022-10-06T07:36:16.326Z,102317.29
2022-10-06T07:38:44.084Z,102312.80
2022-10-06T07:41:19.968Z,102313.11
2022-10-06T07:43:54.594Z,102304.11
2022-10-06T07:46:23.814Z,102306.58
2022-10-06T07:48:59.942Z,102304.73
2022-10-06T07:51:27.911Z,102302.35
2022-10-06T07:53:56.996Z,102301.47
2022-10-06T07:56:34.499Z,102299.22
2022-10-06T07:59:02.516Z,102302.11
2022-10-06T08:01:30.690Z,102298.84
2022-10-06T08:03:58.380Z,102297.81
2022-10-06T08:06:26.035Z,102292.50
2022-10-06T08:08:54.677Z,102292.40
2022-10-06T08:11:22.364Z,102288.09
2022-10-06T08:13:51.368Z,102292.91
2022-10-06T08:16:22.238Z,102288.46
2022-10-06T08:18:52.737Z,102289.09
2022-10-06T08:21:29.664Z,102286.42
2022-10-06T08:23:58.863Z,102290.01
2022-10-06T08:26:27.637Z,102288.29
2022-10-06T08:29:02.766Z,102290.32
2022-10-06T08:31:31.569Z,102291.79
2022-10-06T08:33:59.037Z,102289.11
2022-10-06T08:36:31.308Z,102290.89
2022-10-06T08:39:00.719Z,102285.84
2022-10-06T08:41:45.617Z,102286.11
2022-10-06T08:44:18.098Z,102276.09
2022-10-06T08:47:00.120Z,102275.46
2022-10-06T08:49:39.897Z,102275.81
2022-10-06T08:52:47.029Z,102274.17
2022-10-06T08:55:33.689Z,102274.73
2022-10-06T08:58:38.596Z,102275.58
2022-10-06T09:01:32.307Z,102276.19
2022-10-06T09:04:01.537Z,102269.42
2022-10-06T09:07:10.650Z,102271.45
2022-10-06T09:10:25.699Z,102273.20
2022-10-06T09:13:10.917Z,102271.42
2022-10-06T09:15:48.754Z,102274.26
2022-10-06T09:21:42.802Z,102277.30
2022-10-06T09:24:16.690Z,102279.13
2022-10-06T09:26:46.230Z,102276.81
2022-10-06T09:29:14.369Z,102276.71
2022-10-06T09:31:49.913Z,102280.47
2022-10-06T09:34:22.625Z,102279.50
2022-10-06T09:37:08.724Z,102273.89
2022-10-06T09:39:39.195Z,102275.52
2022-10-06T09:42:09.489Z,102275.77
2022-10-06T09:44:52.742Z,102276.80
2022-10-06T09:47:32.462Z,102274.70
2022-10-06T09:50:11.806Z,102269.46
2022-10-06T09:53:05.748Z,102267.87
2022-10-06T09:55:43.154Z,102266.73
2022-10-06T09:58:24.691Z,102265.67
2022-10-06T10:01:00.321Z,102264.15
2022-10-06T10:06:42.057Z,102256.31
2022-10-06T10:09:21.498Z,102253.02
2022-10-06T10:12:28.234Z,102247.04
2022-10-06T10:15:37.814Z,102244.16
2022-10-06T10:18:12.400Z,102245.31
2022-10-06T10:20:55.354Z,102239.72
2022-10-06T10:23:31.714Z,102238.08
2022-10-06T10:26:44.545Z,102236.88
2022-10-06T10:29:32.794Z,102236.98
2022-10-06T10:32:34.526Z,102235.33
2022-10-06T10:35:12.855Z,102237.80
2022-10-06T10:38:02.025Z,102236.33
2022-10-06T10:40:53.480Z,102234.20
2022-10-06T10:43:44.611Z,102231.63
2022-10-06T10:46:17.584Z,102228.27
2022-10-06T10:48:52.606Z,102224.79
2022-10-06T10:51:30.305Z,102223.42
2022-10-06T10:54:14.893Z,102223.15
2022-10-06T10:56:43.645Z,102219.08
2022-10-06T10:59:31.391Z,102221.34
2022-10-06T11:02:13.264Z,102218.91
2022-10-06T11:04:46.703Z,102220.41
2022-10-06T11:07:17.426Z,102219.27
2022-10-06T11:09:53.457Z,102213.64
2022-10-06T11:12:53.849Z,102213.23
2022-10-06T11:15:53.327Z,102210.35
2022-10-06T11:19:02.080Z,102205.27
2022-10-06T11:22:13.309Z,102200.95
2022-10-06T11:25:13.149Z,102201.27
2022-10-06T11:27:49.775Z,102205.77
2022-10-06T11:30:19.241Z,102202.42
2022-10-06T11:33:02.071Z,102201.01
2022-10-06T11:35:36.246Z,102198.37
2022-10-06T11:38:16.046Z,102194.73
2022-10-06T11:40:49.510Z,102192.02
2022-10-06T11:43:46.918Z,102192.33
2022-10-06T11:46:32.734Z,102191.91
2022-10-06T11:49:27.842Z,102193.77
2022-10-06T11:51:59.624Z,102192.80
2022-10-06T11:55:03.749Z,102190.98
2022-10-06T11:57:32.502Z,102190.19
2022-10-06T12:00:06.070Z,102184.05
2022-10-06T12:02:38.544Z,102187.02
2022-10-06T12:05:49.377Z,102184.98
2022-10-06T12:08:01.274Z,102184.89
2022-10-06T12:10:28.674Z,102178.39
2022-10-06T12:13:40.066Z,102178.98
2022-10-06T12:17:05.602Z,102174.67
2022-10-06T12:19:41.365Z,102171.09
2022-10-06T12:22:21.940Z,102172.56
2022-10-06T12:25:01.378Z,102171.46
2022-10-06T12:27:52.520Z,102166.41
2022-10-06T12:30:48.383Z,102167.39
2022-10-06T12:33:17.777Z,102166.09
2022-10-06T12:35:45.325Z,102162.13
2022-10-06T12:38:30.947Z,102161.61
2022-10-06T12:40:59.173Z,102161.91
2022-10-06T12:43:35.109Z,102167.02
2022-10-06T12:46:31.525Z,102167.20
2022-10-06T12:49:11.841Z,102171.02
2022-10-06T12:51:42.130Z,102168.68
2022-10-06T12:54:23.485Z,102166.94
2022-10-06T12:57:03.380Z,102162.31
2022-10-06T12:59:33.508Z,102161.77
2022-10-06T13:02:08.101Z,102154.80
2022-10-06T13:05:21.936Z,102159.61
2022-10-06T13:08:06.823Z,102162.73
2022-10-06T13:10:34.510Z,102164.06
2022-10-06T13:13:02.196Z,102164.77
2022-10-06T13:15:35.470Z,102168.23
2022-10-06T13:18:19.001Z,102165.52
2022-10-06T13:20:51.907Z,102162.73
2022-10-06T13:23:33.925Z,102159.90
2022-10-06T13:26:21.431Z,102157.20
2022-10-06T13:28:54.521Z,102156.66
2022-10-06T13:31:31.119Z,102157.23
2022-10-06T13:34:09.626Z,102155.77
2022-10-06T13:36:40.230Z,102157.05
2022-10-06T13:39:18.620Z,102158.07
2022-10-06T13:42:03.870Z,102155.45
2022-10-06T13:44:42.546Z,102155.35
2022-10-06T13:47:20.431Z,102158.20
2022-10-06T13:49:55.761Z,102161.77
2022-10-06T13:52:50.271Z,102162.73
2022-10-06T13:55:23.584Z,102157.69
2022-10-06T13:58:03.399Z,102155.52
2022-10-06T14:00:56.423Z,102162.16
2022-10-06T14:03:39.659Z,102164.23
2022-10-06T14:06:20.608Z,102161.55
2022-10-06T14:08:58.257Z,102162.58
2022-10-06T14:11:30.515Z,102161.15
2022-10-06T14:14:01.821Z,102158.45
2022-10-06T14:16:29.940Z,102159.33
2022-10-06T14:19:00.357Z,102161.45
2022-10-06T14:21:41.008Z,102162.89
2022-10-06T14:24:19.995Z,102163.08
2022-10-06T14:26:54.285Z,102166.73
2022-10-06T14:29:22.219Z,102168.69
2022-10-06T14:31:50.140Z,102168.92
2022-10-06T14:34:20.347Z,102170.63
2022-10-06T14:36:54.599Z,102168.63
2022-10-06T14:39:22.501Z,102172.90
2022-10-06T14:41:49.934Z,102178.20
2022-10-06T14:44:17.245Z,102176.40
2022-10-06T14:46:48.342Z,102178.13
2022-10-06T14:49:16.262Z,102178.30
2022-10-06T14:51:45.497Z,102180.80
2022-10-06T14:54:13.353Z,102181.16
2022-10-06T14:56:41.783Z,102182.88
2022-10-06T14:59:13.898Z,102185.36
2022-10-06T15:01:41.846Z,102184.11
2022-10-06T15:04:21.714Z,102185.54
2022-10-06T15:07:07.725Z,102187.90
2022-10-06T15:09:35.348Z,102191.57
2022-10-06T15:12:03.400Z,102191.39
2022-10-06T15:14:31.553Z,102200.27
2022-10-06T15:16:59.846Z,102204.02
2022-10-06T15:19:27.411Z,102204.29
2022-10-06T15:21:55.029Z,102208.30
2022-10-06T15:24:23.863Z,102207.25
2022-10-06T15:27:10.039Z,102213.38
2022-10-06T15:29:37.342Z,102216.94
2022-10-06T15:32:05.714Z,102217.97
2022-10-06T15:34:33.854Z,102217.69
2022-10-06T15:37:01.764Z,102221.16
2022-10-06T15:39:31.652Z,102222.34
2022-10-06T15:41:59.176Z,102220.98
2022-10-06T15:44:26.699Z,102222.59
2022-10-06T15:46:56.226Z,102222.85
2022-10-06T15:49:34.070Z,102223.55
2022-10-06T15:52:03.227Z,102233.59
2022-10-06T15:54:36.948Z,102234.03
2022-10-06T15:57:08.501Z,102238.38
2022-10-06T15:59:36.460Z,102246.94
2022-10-06T16:02:09.111Z,102250.09
2022-10-06T16:04:38.453Z,102253.02
2022-10-06T16:07:15.113Z,102254.21
2022-10-06T16:09:47.762Z,102259.45
2022-10-06T16:12:18.415Z,102263.88
2022-10-06T16:14:46.286Z,102263.30
2022-10-06T16:17:14.813Z,102266.61
2022-10-06T16:19:42.294Z,102273.10
2022-10-06T16:22:13.284Z,102273.64
2022-10-06T16:24:41.072Z,102274.27
2022-10-06T16:27:15.520Z,102280.64
2022-10-06T16:29:43.264Z,102279.75
2022-10-06T16:32:10.964Z,102284.60
2022-10-06T16:34:38.755Z,102286.98
2022-10-06T16:37:06.263Z,102291.28
2022-10-06T16:39:33.686Z,102290.61
2022-10-06T16:42:01.169Z,102294.39
2022-10-06T16:44:28.542Z,102293.63
2022-10-06T16:46:56.117Z,102292.66
2022-10-06T16:49:24.110Z,102293.02
2022-10-06T16:51:51.718Z,102293.03
2022-10-06T16:54:19.184Z,102290.36
2022-10-06T16:56:51.204Z,102293.48
2022-10-06T16:59:21.573Z,102295.23
2022-10-06T17:01:50.149Z,102297.78
2022-10-06T17:04:25.470Z,102300.15
2022-10-06T17:06:55.103Z,102298.92
2022-10-06T17:09:27.973Z,102302.95
2022-10-06T17:11:57.945Z,102302.02
2022-10-06T17:14:26.484Z,102301.36
2022-10-06T17:16:57.896Z,102303.98
2022-10-06T17:19:29.349Z,102312.38
2022-10-06T17:21:59.552Z,102312.89
2022-10-06T17:24:29.374Z,102312.55
2022-10-06T17:26:57.668Z,102313.44
2022-10-06T17:29:25.969Z,102317.52
2022-10-06T17:31:58.202Z,102318.13
2022-10-06T17:34:30.714Z,102318.88
2022-10-06T17:37:01.205Z,102325.88
2022-10-06T17:39:29.324Z,102326.25
2022-10-06T17:41:57.332Z,102329.90
2022-10-06T17:44:27.490Z,102328.42
2022-10-06T17:47:00.089Z,102332.74
2022-10-06T17:49:34.459Z,102336.54
2022-10-06T17:52:03.713Z,102337.54
2022-10-06T17:54:32.957Z,102341.04
2022-10-06T17:57:00.328Z,102347.35
2022-10-06T17:59:30.035Z,102348.58
2022-10-06T18:02:00.729Z,102350.23
2022-10-06T18:04:29.102Z,102354.39
2022-10-06T18:06:56.984Z,102357.75
2022-10-06T18:09:24.649Z,102363.11
2022-10-06T18:11:56.246Z,102362.58
2022-10-06T18:14:32.879Z,102370.21
2022-10-06T18:17:02.124Z,102369.98
2022-10-06T18:19:35.017Z,102371.15
2022-10-06T18:22:09.535Z,102377.14
2022-10-06T18:24:36.979Z,102377.69
2022-10-06T18:27:05.873Z,102376.79
2022-10-06T18:29:35.753Z,102379.95
2022-10-06T18:36:12.988Z,102384.33
2022-10-06T18:37:42.163Z,102387.16
2022-10-06T18:40:10.855Z,102389.22
2022-10-06T18:42:40.351Z,102389.20
2022-10-06T18:45:28.784Z,102397.40
2022-10-06T18:48:15.085Z,102400.52
2022-10-06T18:50:42.444Z,102408.73
2022-10-06T18:53:09.834Z,102411.98
2022-10-06T18:55:37.153Z,102417.16
2022-10-06T18:58:04.898Z,102416.78
2022-10-06T19:00:32.845Z,102421.04
2022-10-06T19:03:00.435Z,102420.42
2022-10-06T19:05:27.761Z,102425.48
2022-10-06T19:07:55.279Z,102429.18
2022-10-06T19:10:22.724Z,102428.38
2022-10-06T19:12:50.061Z,102430.09
2022-10-06T19:15:20.675Z,102436.88
2022-10-06T19:17:49.605Z,102439.40
2022-10-06T19:20:17.818Z,102443.65
2022-10-06T19:22:46.027Z,102443.65
2022-10-06T19:25:14.346Z,102445.83
2022-10-06T19:27:42.110Z,102450.08
2022-10-06T19:30:10.566Z,102452.75
2022-10-06T19:32:38.347Z,102451.45
2022-10-06T19:35:10.159Z,102455.62
2022-10-06T19:37:38.845Z,102456.29
2022-10-06T19:40:08.269Z,102459.02
2022-10-06T19:42:48.085Z,102464.80
2022-10-06T19:45:16.362Z,102460.10
2022-10-06T19:47:44.527Z,102468.08
2022-10-06T19:50:12.997Z,102467.59
2022-10-06T19:52:41.556Z,102470.03
2022-10-06T19:55:09.145Z,102473.33
2022-10-06T19:57:36.644Z,102474.72
2022-10-06T20:00:06.008Z,102476.23
2022-10-06T20:02:43.842Z,102479.31
2022-10-06T20:05:15.332Z,102480.39
2022-10-06T20:07:43.742Z,102484.59
2022-10-06T20:10:12.779Z,102485.29
2022-10-06T20:12:40.995Z,102482.51
2022-10-06T20:15:09.504Z,102478.45
2022-10-06T20:17:37.490Z,102480.86
2022-10-06T20:20:05.629Z,102484.83
2022-10-06T20:22:32.805Z,102482.35
2022-10-06T20:25:02.061Z,102489.83
2022-10-06T20:27:29.719Z,102490.23
2022-10-06T20:29:57.713Z,102490.17
2022-10-06T20:32:25.001Z,102492.55
2022-10-06T20:34:52.291Z,102493.41
2022-10-06T20:37:19.647Z,102496.95
2022-10-06T20:40:05.615Z,102494.48
2022-10-06T20:42:33.308Z,102494.66
2022-10-06T20:45:00.909Z,102500.58
2022-10-06T20:47:29.313Z,102495.77
2022-10-06T20:49:56.570Z,102495.58
2022-10-06T20:52:23.938Z,102491.58
2022-10-06T20:54:51.650Z,102500.80
2022-10-06T20:57:19.422Z,102500.81
2022-10-06T20:59:46.911Z,102506.24
2022-10-06T21:02:14.397Z,102506.45
2022-10-06T21:04:44.088Z,102512.04
2022-10-06T21:07:11.467Z,102509.36
2022-10-06T21:09:39.732Z,102516.77
2022-10-06T21:12:07.247Z,102525.58
2022-10-06T21:14:35.809Z,102524.27
2022-10-06T21:17:03.742Z,102527.27
2022-10-06T21:19:36.703Z,102528.84
2022-10-06T21:22:04.562Z,102528.64
2022-10-06T21:24:31.896Z,102524.16
2022-10-06T21:26:59.623Z,102523.51
2022-10-06T21:29:27.439Z,102520.33
2022-10-06T21:31:54.892Z,102522.14
2022-10-06T21:34:22.263Z,102527.66
2022-10-06T21:36:50.216Z,102528.33
2022-10-06T21:39:18.237Z,102529.07
2022-10-06T21:41:45.587Z,102528.24
2022-10-06T21:44:15.574Z,102527.91
2022-10-06T21:46:52.743Z,102529.54
2022-10-06T21:49:22.599Z,102528.11
2022-10-06T21:51:55.834Z,102532.09
2022-10-06T21:54:23.617Z,102527.05
2022-10-06T21:56:51.838Z,102529.32
2022-10-06T21:59:19.298Z,102528.57
2022-10-06T22:01:49.663Z,102529.26
2022-10-06T22:04:17.423Z,102528.88
2022-10-06T22:06:49.602Z,102525.32
2022-10-06T22:09:18.926Z,102529.44
2022-10-06T22:11:46.363Z,102528.61
2022-10-06T22:14:16.321Z,102531.95
2022-10-06T22:16:44.391Z,102528.90
2022-10-06T22:19:14.004Z,102529.95
2022-10-06T22:21:43.805Z,102528.13
2022-10-06T22:24:22.359Z,102532.92
2022-10-06T22:26:50.068Z,102537.00
2022-10-06T22:29:19.700Z,102537.16
2022-10-06T22:31:48.282Z,102535.77
2022-10-06T22:34:19.098Z,102533.29
2022-10-06T22:36:46.923Z,102533.85
2022-10-06T22:39:14.450Z,102534.64
2022-10-06T22:41:42.096Z,102534.83
2022-10-06T22:44:09.648Z,102539.41
2022-10-06T22:46:37.791Z,102539.16
2022-10-06T22:49:05.961Z,102542.58
2022-10-06T22:51:33.666Z,102547.48
2022-10-06T22:54:01.390Z,102546.36
2022-10-06T22:56:31.997Z,102545.80
2022-10-06T22:59:00.428Z,102548.10
2022-10-06T23:01:29.444Z,102548.08
2022-10-06T23:03:58.234Z,102553.65
2022-10-06T23:06:26.195Z,102558.23
2022-10-06T23:08:53.505Z,102551.65
2022-10-06T23:11:21.725Z,102561.04
2022-10-06T23:13:49.889Z,102562.24
2022-10-06T23:16:19.426Z,102559.31
2022-10-06T23:18:48.249Z,102558.41
2022-10-06T23:21:23.509Z,102560.48
2022-10-06T23:23:58.400Z,102559.38
2022-10-06T23:26:26.436Z,102559.39
2022-10-06T23:28:59.403Z,102559.35
2022-10-06T23:31:28.795Z,102556.56
2022-10-06T23:33:56.647Z,102555.22
2022-10-06T23:36:24.154Z,102555.79
2022-10-06T23:38:51.673Z,102552.38
2022-10-06T23:41:19.358Z,102549.38
2022-10-06T23:43:46.844Z,102548.95
2022-10-06T23:46:14.812Z,102551.75
2022-10-06T23:48:42.937Z,102551.45
2022-10-06T23:51:14.649Z,102546.88
2022-10-06T23:53:42.681Z,102549.77
2022-10-06T23:56:10.556Z,102548.09
2022-10-06T23:58:38.246Z,102549.29
